Latest Weather Observations for Minlaton Airport

IDS60801

Issued at 9:01 am CST Saturday 30 April 2016 (issued every 30 minutes, with the page automatically refreshed every 10 minutes)

About weather observations | Map of weather stations | Latest weather observations for SA | Other Formats
Station Details ID: 022031 Name: MINLATON AERO Lat: -34.75 Lon: 137.53 Height: 32.0 m
Data from the previous 72 hours. | See also: Recent months at Minlaton Airport
Date/Time
CST
Temp
°C
App
Temp
°C
Dew
Point
Rel
Hum
%
Delta-T
°C
Wind Press
QNH
hPa
Press
MSL
hPa
Rain
since 9 am
mm
Dir
 
Spd
km/h
Gust
km/h
Spd
kts
Gust
kts
30/09:00am 18.6 13.9 13.2 71 3.1 N 30 37 16 20 1012.0 1011.9 0.2
30/08:30am 16.9 14.6 14.7 87 1.3 N 20 28 11 15 1012.1 1012.0 0.2
30/08:00am 15.1 12.6 14.0 93 0.6 NNE 20 24 11 13 1012.1 1012.0 0.2
30/07:30am 13.7 11.3 12.8 94 0.5 NNE 17 24 9 13 1012.1 1012.0 0.2
30/07:00am 13.3 9.9 12.4 94 0.5 NNE 22 26 12 14 1011.9 1011.8 0.2
30/06:30am 13.1 9.6 12.3 95 0.4 NNE 22 28 12 15 1011.8 1011.7 0.2
30/06:00am 12.9 9.4 12.1 95 0.4 N 22 26 12 14 1011.9 1011.8 0.2
30/05:30am 12.5 9.2 11.7 95 0.4 N 20 22 11 12 1011.8 1011.7 0.2
30/05:00am 12.4 9.3 11.6 95 0.4 N 19 20 10 11 1011.7 1011.6 0.2
30/04:30am 12.5 9.4 11.7 95 0.4 N 19 20 10 11 1011.6 1011.5 0.2
30/04:00am 12.5 9.8 11.6 94 0.5 N 17 19 9 10 1011.6 1011.5 0.2
30/03:30am 12.6 9.5 11.7 94 0.5 N 19 20 10 11 1011.7 1011.6 0.2
30/03:00am 12.1 9.5 10.8 92 0.7 NNW 15 17 8 9 1011.7 1011.6 0.2
30/02:30am 13.2 10.9 11.8 91 0.7 NW 15 17 8 9 1011.7 1011.6 0.2
30/02:00am 14.0 11.5 12.4 90 0.9 NW 17 19 9 10 1011.9 1011.8 0.2
30/01:30am 14.9 12.5 12.8 87 1.2 NW 17 19 9 10 1012.0 1011.9 0.2
30/01:00am 15.6 12.5 13.3 86 1.3 NW 22 26 12 14 1012.4 1012.3 0.2
30/12:30am 12.6 10.2 11.3 92 0.7 NNW 15 17 8 9 1012.6 1012.5 0.2
30/12:00am 12.2 9.9 10.6 90 0.8 N 13 17 7 9 1012.7 1012.6 0.2
 
Date/Time
CST
Temp
°C
App
Temp
°C
Dew
Point
Rel
Hum
%
Delta-T
°C
Wind Press
QNH
hPa
Press
MSL
hPa
Rain
since 9 am
mm
Dir
 
Spd
km/h
Gust
km/h
Spd
kts
Gust
kts
29/11:30pm 12.7 10.2 10.9 89 0.9 N 15 17 8 9 1012.8 1012.7 0.2
29/11:00pm 13.4 10.6 11.5 88 1.0 N 17 19 9 10 1012.9 1012.8 0.2
29/10:30pm 13.4 10.6 11.5 88 1.0 N 17 17 9 9 1013.1 1013.0 0.2
29/10:00pm 13.4 10.7 11.6 89 1.0 N 17 17 9 9 1013.3 1013.2 0.2
29/09:30pm 13.8 12.1 12.4 91 0.8 N 13 15 7 8 1013.1 1013.0 0.2
29/09:00pm 13.9 12.2 12.3 90 0.9 N 13 13 7 7 1013.0 1012.9 0.2
29/08:30pm 14.3 12.7 12.7 90 0.9 N 13 15 7 8 1012.6 1012.5 0.2
29/08:00pm 14.3 12.6 12.5 89 1.0 NNE 13 13 7 7 1012.5 1012.4 0.2
29/07:30pm 14.8 14.0 12.8 88 1.1 N 9 11 5 6 1012.3 1012.2 0.2
29/07:00pm 15.0 14.6 12.9 87 1.2 NNE 7 9 4 5 1012.1 1012.0 0.2
29/06:30pm 15.7 15.3 13.0 84 1.5 W 7 7 4 4 1011.7 1011.6 0.2
29/06:00pm 17.9 18.7 13.8 77 2.3 W 2 6 1 3 1011.3 1011.2 0.2
29/05:30pm 19.6 19.2 13.1 66 3.7 W 7 7 4 4 1011.2 1011.1 0.2
29/05:00pm 21.3 21.0 12.7 58 4.9 W 6 9 3 5 1011.1 1011.0 0.2
29/04:30pm 21.6 21.1 13.8 61 4.5 WNW 9 11 5 6 1011.1 1011.0 0.2
29/04:00pm 21.4 20.5 13.6 61 4.5 WNW 11 17 6 9 1011.3 1011.2 0.2
29/03:30pm 21.5 19.9 15.1 67 3.8 WNW 17 20 9 11 1011.3 1011.2 0.2
29/03:00pm 21.2 19.1 15.3 69 3.5 WNW 20 26 11 14 1011.0 1010.9 0.2
29/02:30pm 21.8 19.7 16.1 70 3.4 WNW 22 30 12 16 1010.8 1010.7 0.2
29/02:00pm 22.0 19.9 16.3 70 3.5 WNW 22 28 12 15 1010.6 1010.5 0.2
29/01:30pm 21.4 18.8 15.9 71 3.3 WNW 24 33 13 18 1010.7 1010.6 0.2
29/01:00pm 21.3 17.8 15.6 70 3.4 WNW 28 35 15 19 1010.6 1010.5 0.2
29/12:30pm 22.1 18.6 15.5 66 4.0 NNW 28 35 15 19 1011.0 1010.9 0.2
29/12:00pm 21.9 18.6 16.0 69 3.6 NW 28 33 15 18 1011.0 1010.9 0.2
29/11:30am 20.9 17.5 15.9 73 3.0 NNW 28 35 15 19 1011.3 1011.2 0.2
29/11:00am 20.7 17.3 15.9 74 2.9 NNW 28 33 15 18 1011.6 1011.5 0.0
29/10:30am 19.3 18.6 16.5 84 1.7 N 15 20 8 11 1011.8 1011.7 0.0
29/10:00am 18.2 18.2 16.2 88 1.2 NW 11 15 6 8 1012.1 1012.0 0.0
29/09:30am 17.1 17.5 15.4 90 1.0 N 7 11 4 6 1011.9 1011.8 0.0
29/09:00am 16.1 15.9 14.8 92 0.7 NE 9 11 5 6 1012.0 1011.9 2.6
29/08:30am 15.4 14.2 14.1 92 0.7 ENE 13 19 7 10 1012.3 1012.2 2.6
29/08:00am 15.3 15.3 14.2 93 0.6 E 7 11 4 6 1012.5 1012.4 2.6
29/07:30am 15.0 14.9 13.9 93 0.6 SSE 7 11 4 6 1012.4 1012.3 2.4
29/07:00am 15.1 14.2 13.8 92 0.7 SSW 11 13 6 7 1012.2 1012.1 2.4
29/06:30am 15.4 14.6 14.1 92 0.7 SSW 11 13 6 7 1012.2 1012.1 1.6
29/06:00am 16.3 16.3 15.2 93 0.6 ENE 9 11 5 6 1012.0 1011.9 1.2
29/05:30am 16.4 16.0 15.3 93 0.6 ENE 11 11 6 6 1011.8 1011.7 1.2
29/05:00am 16.6 16.7 15.5 93 0.6 NE 9 9 5 5 1011.9 1011.8 1.0
29/04:30am 16.6 16.6 15.3 92 0.8 NE 9 11 5 6 1011.6 1011.5 1.0
29/04:00am 17.1 16.9 15.6 91 0.9 NNE 11 13 6 7 1011.9 1011.8 1.0
29/03:30am 16.9 16.7 14.7 87 1.3 WNW 9 11 5 6 1012.0 1011.9 1.0
29/03:00am 17.6 17.5 15.9 90 1.0 W 11 15 6 8 1012.3 1012.2 0.6
29/02:30am 17.8 16.5 15.8 88 1.2 W 17 19 9 10 1012.2 1012.1 0.4
29/02:00am 18.4 17.1 16.7 90 1.0 WNW 19 20 10 11 1012.4 1012.3 0.2
29/01:30am 18.8 16.2 16.8 88 1.2 WNW 26 35 14 19 1012.2 1012.1 0.2
29/01:00am 20.1 16.6 15.5 75 2.7 NW 28 39 15 21 1011.9 1011.8 0.2
29/12:30am 20.0 16.2 14.6 71 3.2 NNW 28 39 15 21 1011.3 1011.2 0.2
29/12:09am 22.4 16.1 10.9 48 6.4 N 35 54 19 29 1010.9 1010.8 0.2
29/12:00am 22.0 15.6 9.5 45 6.7 N 33 41 18 22 1010.6 1010.5 0.2
 
Date/Time
CST
Temp
°C
App
Temp
°C
Dew
Point
Rel
Hum
%
Delta-T
°C
Wind Press
QNH
hPa
Press
MSL
hPa
Rain
since 9 am
mm
Dir
 
Spd
km/h
Gust
km/h
Spd
kts
Gust
kts
28/11:30pm 21.5 14.5 10.0 48 6.2 NNE 37 46 20 25 1010.2 1010.1 0.2
28/11:00pm 21.7 12.2 9.9 47 6.4 N 50 63 27 34 1010.4 1010.3 0.2
28/10:42pm 22.1 15.4 8.2 41 7.3 N 33 54 18 29 1010.6 1010.5 0.2
28/10:30pm 21.8 16.1 8.3 42 7.1 N 28 33 15 18 1010.3 1010.2 0.2
28/10:00pm 22.7 16.2 8.0 39 7.7 NNE 32 37 17 20 1010.3 1010.2 0.2
28/09:30pm 21.2 15.5 11.2 53 5.5 NNE 32 39 17 21 1010.4 1010.3 0.2
28/09:00pm 20.0 15.3 13.2 65 3.9 NE 30 35 16 19 1010.2 1010.1 0.2
28/08:30pm 19.1 15.0 14.8 76 2.5 ENE 30 35 16 19 1010.7 1010.6 0.2
28/08:00pm 19.3 15.5 14.8 75 2.6 ENE 28 33 15 18 1010.9 1010.8 0.2
28/07:30pm 18.6 15.2 14.7 78 2.3 ENE 26 32 14 17 1010.9 1010.8 0.2
28/07:00pm 18.5 15.0 14.4 77 2.4 E 26 32 14 17 1011.2 1011.1 0.2
28/06:30pm 18.9 15.4 14.4 75 2.6 ENE 26 30 14 16 1011.3 1011.2 0.2
28/06:00pm 19.3 16.0 14.1 72 3.0 ENE 24 28 13 15 1011.3 1011.2 0.2
28/05:30pm 20.3 17.4 14.0 67 3.6 ENE 22 26 12 14 1011.4 1011.3 0.2
28/05:00pm 21.2 18.8 14.4 65 4.0 ENE 20 24 11 13 1011.3 1011.2 0.2
28/04:30pm 21.8 19.2 13.2 58 4.9 ENE 19 22 10 12 1012.1 1012.0 0.2
28/04:00pm 22.2 18.9 12.7 55 5.4 ENE 22 28 12 15 1012.0 1011.9 0.2
28/03:30pm 22.8 19.8 12.7 53 5.8 E 20 24 11 13 1012.4 1012.3 0.2
28/03:00pm 23.2 19.5 12.8 52 6.0 E 24 33 13 18 1012.3 1012.2 0.2
28/02:30pm 22.8 20.4 12.7 53 5.8 E 17 20 9 11 1013.0 1012.9 0.2
28/02:00pm 22.9 19.9 12.5 52 5.9 ENE 20 28 11 15 1013.1 1013.0 0.2
28/01:30pm 22.5 19.5 11.9 51 6.0 ENE 19 28 10 15 1013.6 1013.5 0.2
28/01:00pm 22.7 19.5 12.0 50 6.0 E 20 28 11 15 1014.0 1013.9 0.2
28/12:30pm 23.2 20.1 12.2 50 6.2 ENE 20 28 11 15 1014.6 1014.5 0.2
28/12:00pm 22.9 21.0 13.1 54 5.6 ENE 15 20 8 11 1015.3 1015.2 0.2
28/11:30am 22.2 19.9 13.0 56 5.3 ENE 17 26 9 14 1016.0 1016.0 0.2
28/11:00am 20.8 19.1 13.7 64 4.1 E 15 20 8 11 1016.7 1016.7 0.0
28/10:30am 20.2 18.1 13.6 66 3.8 ENE 17 22 9 12 1017.1 1017.1 0.0
28/10:00am 19.4 18.3 14.4 73 2.9 ENE 13 17 7 9 1017.7 1017.7 0.0
28/09:30am 17.9 17.1 15.2 84 1.6 ENE 13 17 7 9 1017.8 1017.8 0.0
28/09:00am 16.6 15.8 15.0 90 0.9 E 13 17 7 9 1017.9 1017.9 0.0
28/08:30am 16.0 15.4 14.7 92 0.7 E 11 13 6 7 1017.7 1017.7 0.0
28/08:00am 15.3 13.8 14.3 94 0.6 ENE 15 19 8 10 1017.4 1017.4 0.0
28/07:30am 15.3 14.6 14.3 94 0.6 E 11 13 6 7 1017.4 1017.4 0.0
28/07:00am 15.2 14.5 14.2 94 0.6 ENE 11 11 6 6 1017.4 1017.4 0.0
28/06:30am 15.2 15.2 14.2 94 0.6 E 7 9 4 5 1017.0 1017.0 0.0
28/06:00am 15.5 15.2 14.5 94 0.6 SE 9 11 5 6 1016.5 1016.5 0.0
28/05:30am 15.2 14.1 14.2 94 0.6 SSE 13 13 7 7 1016.2 1016.2 0.0
28/05:00am 15.1 13.9 14.1 94 0.6 SSE 13 13 7 7 1016.3 1016.3 0.0
28/04:30am 14.0 12.8 12.9 93 0.6 SE 11 13 6 7 1016.0 1016.0 0.0
28/04:00am 15.0 14.5 13.9 93 0.6 S 9 11 5 6 1016.1 1016.1 0.0
28/03:30am 14.8 14.6 13.5 92 0.7 S 7 9 4 5 1016.4 1016.4 0.0
28/03:00am 14.0 13.3 12.0 88 1.1 S 7 9 4 5 1016.4 1016.4 0.0
28/02:30am 16.0 16.0 14.2 89 1.0 SSW 7 9 4 5 1016.3 1016.3 0.0
28/02:00am 16.2 15.8 14.2 88 1.1 SSW 9 11 5 6 1016.1 1016.1 0.0
28/01:30am 16.7 16.1 14.5 87 1.3 SW 11 13 6 7 1016.3 1016.3 0.0
28/01:00am 17.0 15.4 15.0 88 1.2 SW 17 20 9 11 1015.9 1015.9 0.0
28/12:30am 16.9 15.2 14.7 87 1.3 SW 17 19 9 10 1015.4 1015.3 0.0
28/12:00am 17.3 16.1 15.1 87 1.3 SW 15 19 8 10 1015.3 1015.2 0.0
 
Date/Time
CST
Temp
°C
App
Temp
°C
Dew
Point
Rel
Hum
%
Delta-T
°C
Wind Press
QNH
hPa
Press
MSL
hPa
Rain
since 9 am
mm
Dir
 
Spd
km/h
Gust
km/h
Spd
kts
Gust
kts
27/11:30pm 17.3 16.4 14.8 85 1.4 SW 13 17 7 9 1015.4 1015.3 0.0
27/11:00pm 16.8 16.0 14.1 84 1.5 SW 11 15 6 8 1015.3 1015.2 0.0
27/10:30pm 16.6 15.4 14.1 85 1.4 SW 13 15 7 8 1015.0 1014.9 0.0
27/10:00pm 16.0 14.3 13.5 85 1.4 SW 15 19 8 10 1014.8 1014.7 0.0
27/09:30pm 16.6 15.8 13.9 84 1.5 SW 11 15 6 8 1014.7 1014.6 0.0
27/09:00pm 17.1 15.5 14.0 82 1.8 SW 15 17 8 9 1014.2 1014.1 0.0
27/08:30pm 18.1 17.1 14.6 80 2.0 S 13 19 7 10 1013.7 1013.6 0.0
27/08:00pm 18.8 17.8 14.5 76 2.5 SSW 13 17 7 9 1013.7 1013.6 0.0
27/07:30pm 19.1 17.7 13.3 69 3.3 SSW 13 15 7 8 1013.4 1013.3 0.0
27/07:00pm 19.5 18.0 14.1 71 3.1 SW 15 19 8 10 1013.2 1013.1 0.0
27/06:30pm 19.9 17.9 13.8 68 3.5 SW 17 22 9 12 1012.7 1012.6 0.0
27/06:00pm 20.9 19.8 14.3 66 3.8 WNW 13 20 7 11 1012.1 1012.0 0.0
27/05:30pm 22.3 19.9 12.5 53 5.6 WNW 17 20 9 11 1011.7 1011.6 0.0
27/05:00pm 25.6 20.5 5.8 28 10.2 N 22 28 12 15 1011.3 1011.2 0.0
27/04:30pm 25.6 20.1 7.7 32 9.5 N 26 32 14 17 1011.1 1011.0 0.0
27/04:00pm 26.8 19.5 7.3 29 10.4 NNW 35 43 19 23 1011.1 1011.0 0.0
27/03:30pm 26.8 20.1 7.3 29 10.4 N 32 43 17 23 1010.9 1010.8 0.0
27/03:00pm 24.4 17.6 7.1 33 9.1 N 32 41 17 22 1010.9 1010.8 0.0
27/02:30pm 24.1 17.1 8.5 37 8.4 N 35 44 19 24 1010.9 1010.8 0.0
27/02:00pm 24.3 17.3 8.3 36 8.5 N 35 43 19 23 1011.0 1010.9 0.0
27/01:30pm 24.4 15.8 6.6 32 9.2 N 41 52 22 28 1011.0 1010.9 0.0
27/01:00pm 24.8 16.0 5.6 29 9.8 N 41 54 22 29 1011.1 1011.0 0.0
27/12:37pm 25.0 15.7 5.2 28 10.0 N 43 61 23 33 1011.4 1011.3 0.0
27/12:30pm 25.4 15.1 4.5 26 10.5 N 48 61 26 33 1011.4 1011.3 0.0
27/12:00pm 27.3 17.4 5.0 24 11.4 N 46 59 25 32 1011.7 1011.6 0.0
27/11:30am 27.1 17.8 4.8 24 11.4 N 43 56 23 30 1012.2 1012.1 0.0
27/11:00am 25.0 16.6 7.2 32 9.4 N 41 50 22 27 1012.5 1012.4 0.0
27/10:30am 23.8 16.3 9.4 40 7.8 N 39 50 21 27 1012.9 1012.8 0.0
27/10:00am 23.2 16.6 9.9 43 7.3 NNW 35 46 19 25 1013.3 1013.2 0.0
27/09:30am 23.5 16.1 6.7 34 8.7 NNW 35 43 19 23 1013.4 1013.3 0.0
27/09:16am 24.1 15.2 5.0 29 9.6 NNW 41 56 22 30 1013.6 1013.5 0.0

Other Formats:

Comma delimited format used in spreadsheet applications
http://www.bom.gov.au/fwo/IDS60801/IDS60801.95659.axf

JavaScript Object Notation format (JSON) in row-major order
http://www.bom.gov.au/fwo/IDS60801/IDS60801.95659.json